EHBK/MST METAR and TAF weather

Enter ICAO airport designator
Station Type Date Time Source
EHBK METAR 2019/10/21 04:55 UTC NOAA

EHBK 210455Z AUTO 14007KT 110V170 9000 FEW015CB BKN046 12/12 Q1011 REDZ NOSIG


Station Type Date Time Source
EHBK Decoded METAR 2019/10/21 04:55 UTC NOAA

Maastricht Airport Zuid Limburg, Netherlands (EHBK) 50-55N 005-47E 116M
Oct 21, 2019 - 12:55 AM EDT / 2019.10.21 0455 UTC
Wind: from the SE (140 degrees) at 8 MPH (7 KT) (direction variable):0
Visibility: 5 mile(s):0
Sky conditions: mostly cloudy
Weather: Cumulonimbus clouds observed
Temperature: 53 F (12 C)
Dew Point: 53 F (12 C)
Relative Humidity: 100%
Pressure (altimeter): 29.85 in. Hg (1011 hPa)
ob: EHBK 210455Z AUTO 14007KT 110V170 9000 FEW015CB BKN046 12/12 Q1011 REDZ NOSIG
cycle: 5

Station Type Date Time Source
EHBK TAF 2019/10/20 18:27 UTC NOAA

TAF EHBK 201712Z 2018/2124 03008KT 4000 BR -RADZ BKN006
BECMG 2018/2021 0800 FG -DZ BKN003 PROB40 2020/2024 0300 BKN002
BECMG 2100/2103 4000 BR BKN012
BECMG 2103/2106 7000 NSW BKN015
BECMG 2106/2109 21012KT 9999

Example: see airport list